Date,TemperatureHighF,TemperatureAvgF,TemperatureLowF,DewpointHighF,DewpointAvgF,DewpointLowF,HumidityHigh,HumidityAvg,HumidityLow,PressureMaxIn,PressureMinIn,WindSpeedMaxMPH,WindSpeedAvgMPH,GustSpeedMaxMPH,PrecipitationSumIn
2013-1-1,55.1,52.9,48.8,50.0,47.3,40.8,89,82,72,30.14,29.92,4,2,4,0.00
2013-1-2,52.6,49.4,43.0,49.2,46.0,39.1,91,88,80,30.16,29.88,10,2,10,0.00
2013-1-3,43.6,40.7,32.6,38.3,35.8,28.5,89,83,74,30.26,30.12,3,1,3,0.00
2013-1-4,52.4,36.2,27.0,33.3,28.4,23.6,89,75,45,30.32,30.21,4,1,4,0.00
2013-1-5,52.0,37.9,25.9,31.8,26.7,21.4,85,66,41,30.39,30.27,10,0,10,0.00
2013-1-6,46.8,45.5,43.4,43.5,41.5,37.3,89,86,79,30.22,30.06,2,0,2,0.00
2013-1-7,54.4,42.9,32.6,42.4,34.4,28.5,91,74,50,30.41,30.16,8,1,8,0.00
2013-1-8,45.4,42.4,39.8,40.5,37.1,34.5,84,81,76,30.42,30.37,2,1,2,0.00
2013-1-9,70.6,53.3,40.1,56.5,47.0,36.3,89,80,59,30.41,30.34,2,0,2,0.00
2013-1-10,70.9,61.1,48.8,54.1,50.0,41.9,90,68,55,30.49,30.40,5,2,5,0.00
2013-1-11,70.2,55.0,48.6,62.5,48.0,40.1,89,78,62,30.40,30.15,4,1,4,0.00
2013-1-12,76.0,59.2,54.0,65.1,55.4,50.9,91,87,69,30.16,30.11,5,1,5,0.00
2013-1-13,76.9,69.6,58.0,64.1,60.1,55.1,91,73,58,30.14,30.06,5,2,5,0.00
2013-1-14,77.8,66.2,53.6,64.1,59.3,50.5,91,79,60,30.17,30.08,7,2,7,0.00
2013-1-15,59.9,55.7,52.4,56.5,52.4,49.5,90,89,86,30.16,30.08,5,2,5,0.00
2013-1-16,75.6,59.8,53.1,64.5,56.0,50.5,92,87,65,30.03,29.94,8,1,8,0.00
2013-1-17,57.2,53.0,40.7,54.6,50.1,37.7,91,90,87,30.03,29.75,15,4,15,0.00
2013-1-18,50.2,40.3,30.8,36.5,30.4,24.8,89,70,40,30.51,30.10,8,2,8,0.00
2013-1-19,59.2,42.5,26.6,40.7,32.6,22.7,86,70,45,30.48,30.16,4,1,4,0.00
2013-1-20,64.1,47.9,37.3,43.2,36.8,33.7,89,69,38,30.16,30.00,6,1,6,0.00
2013-1-21,64.3,43.7,31.7,39.4,33.0,27.2,84,68,39,30.06,29.89,4,1,4,0.00
2013-1-22,45.7,39.3,27.5,28.5,16.0,13.0,56,40,27,30.24,29.97,5,1,5,0.00
2013-1-23,44.1,33.9,21.4,20.2,14.6,9.5,65,47,30,30.38,30.11,3,0,3,0.00
2013-1-24,43.9,37.1,24.8,35.5,19.4,7.0,77,50,28,30.50,30.01,17,1,17,0.00
2013-1-25,32.0,28.3,19.1,23.6,17.0,9.0,80,63,46,30.50,30.12,0,0,0,0.00
2013-1-26,44.6,32.2,27.5,34.8,26.1,22.3,84,79,60,30.36,30.10,8,0,8,0.00
2013-1-27,43.9,36.7,29.5,31.3,27.3,23.1,87,69,55,30.57,30.50,6,1,6,0.00
2013-1-28,58.3,49.6,34.6,47.0,41.0,29.9,84,73,62,30.47,30.27,2,0,2,0.00
2013-1-29,74.9,60.7,43.0,59.9,52.8,39.4,89,76,56,30.24,30.10,8,2,8,0.00
2013-1-30,73.6,66.0,59.8,64.4,60.8,56.3,91,83,73,30.09,29.51,13,3,13,0.00
2013-1-31,61.9,49.5,38.0,57.1,33.8,24.9,87,57,34,30.06,29.56,17,5,17,0.00